Findlay Airport Findlay US
ICAO: KFDY
IATA: FDY
Category: Medium
Scheduled Services: No

Elevation: 813 ft
TransAlt. 18000 ft.

Airport Communications:
TOLEDO APP/DEP:120.8
ASOS:124.425
CLEVELAND RDO:122.2
CTAF/UNICOM:122.725

KFDY Zoom In..

If you have problems with the map follow the link
https://www.worldairports.se/pages/airport.php?
ICAO=KFDY

Runways:

(A) RW 07 length 5883 ft width 100 ft
---- / hdg 74

(B) RW 18 length 6498 ft width 100 ft
---- / hdg 185

(C) RW 25 length 5883 ft width 100 ft
---- / hdg 254

(D) RW 36 length 6498 ft width 100 ft
---- / hdg 5

Location; KFDY
Day. 14 / Time. 14.53 Zulu
* Altimeter: 29.61
* Temperature: 03° c. 37.4°f.
* Wind from: 290° Speed 07 kn.
Dewpoint: 02° c.
Visibility: 1 m.
Clouds: Few 300 ft.
Clouds: Overcast 1800 ft.
Conditions: Mist.

KFDY 141453Z AUTO 29007KT 1 1/2SM BR FEW003 OVC018 03/02 A2961 RMK AO2 SLP028 60000 T00330022 56007


Wind From 290°
Speed 07 kn.

 
 
jpsmedia worldairports.se 2019   terms of use